createdAt,value
2023-03-12T00:01:17.616Z,22.33
2023-03-12T00:03:46.053Z,15.57
2023-03-12T00:06:14.314Z,14.70
2023-03-12T00:08:42.521Z,16.50
2023-03-12T00:11:11.982Z,25.85
2023-03-12T00:13:41.826Z,19.98
2023-03-12T00:16:12.355Z,19.27
2023-03-12T00:18:41.472Z,18.45
2023-03-12T00:21:10.431Z,17.15
2023-03-12T00:23:39.297Z,18.52
2023-03-12T00:26:09.834Z,14.98
2023-03-12T00:28:38.664Z,19.02
2023-03-12T00:31:17.843Z,18.20
2023-03-12T00:33:46.221Z,14.32
2023-03-12T00:36:14.439Z,11.93
2023-03-12T00:38:43.124Z,17.42
2023-03-12T00:41:11.344Z,15.57
2023-03-12T00:43:39.737Z,15.85
2023-03-12T00:46:08.023Z,13.35
2023-03-12T00:48:37.621Z,15.13
2023-03-12T00:51:06.465Z,15.32
2023-03-12T00:53:34.656Z,11.85
2023-03-12T00:56:03.083Z,15.55
2023-03-12T00:58:31.285Z,14.55
2023-03-12T01:00:59.558Z,16.15
2023-03-12T01:03:28.059Z,13.23
2023-03-12T01:05:57.653Z,12.20
2023-03-12T01:08:26.333Z,14.02
2023-03-12T01:10:54.739Z,18.02
2023-03-12T01:13:23.193Z,12.18
2023-03-12T01:15:51.432Z,14.15
2023-03-12T01:18:19.748Z,12.52
2023-03-12T01:20:48.178Z,13.23
2023-03-12T01:23:17.897Z,14.20
2023-03-12T01:25:47.515Z,14.48
2023-03-12T01:28:15.843Z,12.15
2023-03-12T01:30:44.152Z,10.07
2023-03-12T01:33:12.306Z,15.73
2023-03-12T01:35:42.093Z,13.95
2023-03-12T01:38:13.308Z,11.07
2023-03-12T01:40:44.973Z,17.58
2023-03-12T01:43:29.067Z,16.70
2023-03-12T01:46:24.147Z,13.43
2023-03-12T01:48:57.831Z,10.45
2023-03-12T01:51:28.760Z,10.32
2023-03-12T01:54:01.595Z,10.70
2023-03-12T01:56:34.783Z,8.80
2023-03-12T02:01:33.826Z,9.95
2023-03-12T02:04:03.093Z,14.93
2023-03-12T02:06:38.293Z,11.45
2023-03-12T02:09:08.519Z,13.57
2023-03-12T02:11:38.077Z,10.98
2023-03-12T02:14:06.338Z,11.52
2023-03-12T02:16:34.928Z,10.20
2023-03-12T02:19:05.923Z,11.50
2023-03-12T02:21:37.231Z,11.82
2023-03-12T02:24:15.076Z,12.35
2023-03-12T02:26:44.677Z,12.07
2023-03-12T02:29:14.305Z,10.82
2023-03-12T02:31:47.328Z,12.00
2023-03-12T02:36:43.630Z,9.48
2023-03-12T02:39:13.228Z,10.25
2023-03-12T02:41:46.287Z,11.35
2023-03-12T02:44:18.353Z,11.18
2023-03-12T02:46:49.764Z,9.23
2023-03-12T02:49:19.961Z,11.30
2023-03-12T02:51:49.124Z,12.43
2023-03-12T02:54:18.848Z,12.43
2023-03-12T02:56:49.452Z,15.65
2023-03-12T02:59:17.937Z,8.77
2023-03-12T03:01:46.320Z,11.30
2023-03-12T03:04:14.931Z,7.95
2023-03-12T03:06:44.857Z,12.63
2023-03-12T03:09:13.075Z,13.63
2023-03-12T03:11:41.465Z,10.02
2023-03-12T03:14:11.315Z,12.18
2023-03-12T03:16:39.590Z,9.25
2023-03-12T03:19:07.874Z,10.07
2023-03-12T03:21:36.245Z,8.68
2023-03-12T03:24:05.239Z,10.60
2023-03-12T03:26:33.858Z,8.73
2023-03-12T03:29:02.164Z,8.40
2023-03-12T03:31:31.782Z,13.93
2023-03-12T03:34:00.068Z,12.05
2023-03-12T03:36:28.306Z,11.57
2023-03-12T03:38:56.516Z,9.48
2023-03-12T03:41:26.213Z,10.23
2023-03-12T03:43:58.499Z,9.95
2023-03-12T03:46:27.415Z,8.70
2023-03-12T03:48:57.284Z,11.10
2023-03-12T03:51:25.472Z,10.93
2023-03-12T03:53:53.681Z,7.47
2023-03-12T03:56:22.082Z,9.85
2023-03-12T03:58:50.278Z,12.30
2023-03-12T04:01:18.614Z,6.40
2023-03-12T04:03:46.865Z,9.52
2023-03-12T04:06:16.835Z,9.55
2023-03-12T04:08:45.049Z,10.13
2023-03-12T04:11:15.778Z,9.23
2023-03-12T04:13:44.612Z,14.10
2023-03-12T04:16:13.464Z,7.55
2023-03-12T04:18:42.087Z,9.43
2023-03-12T04:21:12.071Z,9.35
2023-03-12T04:23:41.931Z,10.27
2023-03-12T04:26:10.401Z,8.73
2023-03-12T04:28:38.963Z,11.27
2023-03-12T04:31:09.331Z,10.52
2023-03-12T04:33:39.204Z,9.73
2023-03-12T04:36:08.392Z,7.60
2023-03-12T04:38:36.848Z,10.30
2023-03-12T04:41:09.014Z,11.05
2023-03-12T04:43:37.492Z,9.65
2023-03-12T04:46:06.237Z,9.65
2023-03-12T04:48:35.501Z,6.60
2023-03-12T04:51:04.004Z,10.77
2023-03-12T04:53:32.357Z,6.80
2023-03-12T04:56:00.726Z,8.75
2023-03-12T04:58:30.305Z,8.77
2023-03-12T05:00:58.554Z,7.90
2023-03-12T05:03:27.045Z,111.47
2023-03-12T05:05:55.316Z,18.52
2023-03-12T05:08:23.496Z,13.50
2023-03-12T05:10:51.683Z,9.55
2023-03-12T05:13:21.501Z,7.90
2023-03-12T05:15:52.615Z,8.90
2023-03-12T05:18:21.635Z,9.07
2023-03-12T05:20:59.792Z,7.38
2023-03-12T05:23:28.090Z,15.02
2023-03-12T05:25:56.432Z,10.13
2023-03-12T05:28:28.326Z,7.85
2023-03-12T05:30:59.104Z,9.23
2023-03-12T05:33:29.114Z,9.20
2023-03-12T05:35:57.396Z,8.93
2023-03-12T05:38:25.657Z,6.03
2023-03-12T05:40:55.078Z,10.00
2023-03-12T05:43:23.853Z,6.32
2023-03-12T05:45:52.540Z,10.00
2023-03-12T05:48:22.222Z,5.95
2023-03-12T05:50:50.432Z,10.20
2023-03-12T05:53:18.654Z,6.68
2023-03-12T05:55:46.824Z,7.22
2023-03-12T05:58:15.051Z,10.38
2023-03-12T06:00:44.535Z,10.00
2023-03-12T06:03:12.936Z,7.28
2023-03-12T06:05:42.528Z,8.30
2023-03-12T06:08:10.700Z,8.30
2023-03-12T06:10:40.092Z,7.85
2023-03-12T06:13:08.910Z,7.88
2023-03-12T06:15:37.129Z,10.30
2023-03-12T06:18:05.502Z,7.03
2023-03-12T06:20:33.662Z,8.57
2023-03-12T06:23:03.324Z,8.70
2023-03-12T06:25:31.671Z,5.50
2023-03-12T06:27:59.965Z,6.22
2023-03-12T06:30:28.187Z,6.38
2023-03-12T06:32:56.445Z,10.00
2023-03-12T06:35:24.873Z,12.40
2023-03-12T06:37:53.069Z,5.88
2023-03-12T06:40:22.811Z,8.38
2023-03-12T06:42:51.064Z,7.50
2023-03-12T06:45:19.531Z,6.78
2023-03-12T06:47:47.701Z,7.15
2023-03-12T06:50:15.963Z,4.53
2023-03-12T06:52:44.151Z,7.60
2023-03-12T06:55:12.381Z,11.40
2023-03-12T06:57:42.277Z,7.97
2023-03-12T07:00:15.860Z,10.35
2023-03-12T07:02:44.920Z,4.97
2023-03-12T07:05:13.713Z,4.72
2023-03-12T07:07:41.949Z,6.57
2023-03-12T07:10:12.439Z,4.32
2023-03-12T07:12:42.471Z,4.82
2023-03-12T07:15:11.432Z,5.45
2023-03-12T07:17:39.983Z,6.28
2023-03-12T07:20:13.326Z,5.78
2023-03-12T07:22:42.048Z,4.95
2023-03-12T07:25:11.106Z,4.93
2023-03-12T07:27:40.277Z,5.28
2023-03-12T07:30:12.142Z,5.05
2023-03-12T07:32:40.826Z,5.15
2023-03-12T07:35:10.138Z,4.63
2023-03-12T07:37:38.355Z,5.50
2023-03-12T07:40:09.975Z,4.00
2023-03-12T07:42:38.209Z,4.72
2023-03-12T07:45:08.156Z,5.25
2023-03-12T07:47:39.297Z,7.18
2023-03-12T07:50:08.639Z,6.75
2023-03-12T07:52:41.290Z,8.05
2023-03-12T07:55:13.505Z,4.63
2023-03-12T07:57:42.396Z,4.20
2023-03-12T08:00:12.050Z,12.35
2023-03-12T08:02:42.056Z,9.13
2023-03-12T08:05:11.466Z,5.50
2023-03-12T08:07:39.792Z,6.80
2023-03-12T08:10:10.258Z,9.25
2023-03-12T08:12:38.891Z,5.93
2023-03-12T08:15:08.567Z,7.25
2023-03-12T08:17:40.288Z,10.27
2023-03-12T08:20:12.003Z,7.03
2023-03-12T08:22:44.048Z,7.00
2023-03-12T08:25:13.319Z,13.05
2023-03-12T08:27:44.320Z,12.85
2023-03-12T08:30:15.017Z,12.52
2023-03-12T08:32:43.780Z,12.15
2023-03-12T08:35:13.420Z,10.38
2023-03-12T08:37:42.343Z,11.90
2023-03-12T08:40:14.043Z,10.88
2023-03-12T08:42:43.782Z,9.90
2023-03-12T08:45:14.231Z,5.72
2023-03-12T08:47:43.461Z,12.15
2023-03-12T08:50:16.545Z,109.22
2023-03-12T08:55:13.582Z,106.05
2023-03-12T08:57:42.176Z,131.65
2023-03-12T09:00:15.145Z,129.15
2023-03-12T09:02:45.497Z,96.13
2023-03-12T09:05:15.776Z,75.30
2023-03-12T09:07:44.081Z,47.92
2023-03-12T09:10:12.998Z,49.38
2023-03-12T09:12:41.203Z,26.58
2023-03-12T09:15:10.791Z,64.00
2023-03-12T09:17:39.397Z,30.25
2023-03-12T09:20:10.008Z,69.90
2023-03-12T09:22:39.605Z,151.05
2023-03-12T09:25:09.755Z,96.95
2023-03-12T09:27:38.683Z,36.53
2023-03-12T09:30:08.557Z,26.02
2023-03-12T09:32:36.948Z,22.27
2023-03-12T09:35:05.788Z,38.80
2023-03-12T09:37:34.222Z,43.03
2023-03-12T09:40:07.613Z,52.33
2023-03-12T09:42:42.026Z,21.52
2023-03-12T09:45:19.596Z,12.35
2023-03-12T09:47:50.971Z,9.32
2023-03-12T09:50:24.781Z,7.70
2023-03-12T09:52:58.898Z,8.15
2023-03-12T09:55:29.969Z,7.78
2023-03-12T09:57:59.381Z,9.88
2023-03-12T10:00:32.766Z,10.30
2023-03-12T10:03:28.599Z,9.93
2023-03-12T10:06:07.988Z,10.65
2023-03-12T10:08:50.471Z,16.42
2023-03-12T10:11:36.605Z,20.98
2023-03-12T10:14:23.835Z,19.50
2023-03-12T10:17:04.497Z,17.73
2023-03-12T10:19:44.848Z,16.58
2023-03-12T10:22:23.894Z,17.30
2023-03-12T10:25:02.112Z,18.45
2023-03-12T10:27:37.098Z,21.60
2023-03-12T10:30:18.167Z,16.88
2023-03-12T10:32:51.934Z,21.02
2023-03-12T10:35:22.295Z,18.90
2023-03-12T10:37:54.184Z,16.88
2023-03-12T10:40:24.840Z,20.02
2023-03-12T10:42:55.104Z,19.70
2023-03-12T10:45:32.970Z,20.80
2023-03-12T10:48:04.933Z,19.67
2023-03-12T10:50:35.196Z,27.75
2023-03-12T10:53:22.632Z,26.88
2023-03-12T10:56:10.197Z,26.13
2023-03-12T10:58:41.652Z,59.13
2023-03-12T11:01:21.209Z,34.70
2023-03-12T11:03:52.820Z,30.77
2023-03-12T11:06:28.180Z,43.88
2023-03-12T11:09:16.728Z,98.85
2023-03-12T11:11:49.705Z,163.70
2023-03-12T11:14:21.487Z,61.13
2023-03-12T11:16:50.486Z,46.42
2023-03-12T11:19:29.349Z,25.33
2023-03-12T11:22:00.011Z,25.45
2023-03-12T11:24:29.092Z,25.60
2023-03-12T11:27:03.346Z,23.73
2023-03-12T11:29:36.690Z,22.95
2023-03-12T11:32:12.697Z,24.58
2023-03-12T11:34:49.535Z,20.05
2023-03-12T11:37:26.715Z,19.02
2023-03-12T11:40:21.234Z,19.75
2023-03-12T11:43:36.053Z,24.83
2023-03-12T11:46:25.126Z,24.60
2023-03-12T11:49:04.892Z,21.90
2023-03-12T11:51:45.020Z,26.42
2023-03-12T11:54:45.365Z,21.90
2023-03-12T11:57:23.141Z,24.17
2023-03-12T12:00:32.234Z,21.45
2023-03-12T12:03:46.508Z,24.33
2023-03-12T12:09:08.468Z,22.73
2023-03-12T12:11:51.109Z,18.48
2023-03-12T12:14:39.399Z,18.83
2023-03-12T12:17:22.180Z,16.70
2023-03-12T12:20:09.072Z,18.55
2023-03-12T12:22:47.274Z,44.55
2023-03-12T12:25:32.392Z,228.00
2023-03-12T12:28:29.939Z,212.35
2023-03-12T12:31:10.404Z,145.65
2023-03-12T12:33:56.987Z,51.20
2023-03-12T12:36:32.168Z,29.40
2023-03-12T12:39:06.166Z,33.67
2023-03-12T12:41:38.385Z,31.88
2023-03-12T12:44:12.704Z,28.10
2023-03-12T12:46:43.494Z,24.70
2023-03-12T12:49:15.958Z,25.33
2023-03-12T12:51:49.536Z,22.95
2023-03-12T12:54:25.809Z,24.13
2023-03-12T12:57:00.017Z,21.75
2023-03-12T12:59:36.015Z,23.20
2023-03-12T13:02:08.714Z,24.67
2023-03-12T13:04:40.537Z,27.92
2023-03-12T13:07:37.855Z,39.80
2023-03-12T13:10:48.597Z,84.68
2023-03-12T13:13:27.391Z,29.63
2023-03-12T13:16:22.950Z,33.05
2023-03-12T13:18:58.430Z,24.35
2023-03-12T13:21:32.312Z,24.77
2023-03-12T13:24:17.159Z,23.38
2023-03-12T13:27:00.488Z,27.08
2023-03-12T13:29:39.795Z,24.85
2023-03-12T13:32:11.884Z,24.42
2023-03-12T13:34:50.032Z,20.20
2023-03-12T13:37:58.051Z,21.90
2023-03-12T13:41:02.074Z,20.42
2023-03-12T13:46:10.339Z,20.42
2023-03-12T13:48:46.752Z,22.45
2023-03-12T13:51:19.268Z,17.80
2023-03-12T13:53:58.143Z,20.88
2023-03-12T13:56:31.888Z,21.23
2023-03-12T13:59:03.349Z,118.88
2023-03-12T14:01:36.634Z,104.95
2023-03-12T14:06:49.910Z,31.80
2023-03-12T14:09:26.045Z,52.40
2023-03-12T14:12:04.071Z,25.50
2023-03-12T14:14:53.288Z,30.13
2023-03-12T14:17:24.749Z,18.20
2023-03-12T14:19:58.445Z,35.67
2023-03-12T14:22:28.894Z,23.52
2023-03-12T14:25:01.920Z,17.50
2023-03-12T14:27:34.672Z,24.08
2023-03-12T14:30:12.615Z,47.38
2023-03-12T14:32:43.524Z,40.38
2023-03-12T14:35:19.271Z,33.88
2023-03-12T14:37:54.071Z,111.40
2023-03-12T14:40:25.766Z,38.90
2023-03-12T14:42:56.679Z,140.65
2023-03-12T14:45:25.881Z,27.65
2023-03-12T14:47:56.214Z,20.73
2023-03-12T14:50:26.501Z,15.13
2023-03-12T14:52:55.764Z,18.23
2023-03-12T14:55:26.755Z,15.23
2023-03-12T14:58:07.636Z,13.50
2023-03-12T15:00:36.000Z,12.82
2023-03-12T15:03:06.955Z,19.02
2023-03-12T15:05:36.729Z,13.23
2023-03-12T15:08:05.842Z,12.23
2023-03-12T15:10:34.847Z,16.13
2023-03-12T15:13:04.379Z,16.35
2023-03-12T15:15:41.488Z,13.50
2023-03-12T15:18:14.810Z,15.45
2023-03-12T15:23:13.460Z,12.82
2023-03-12T15:25:42.530Z,16.48
2023-03-12T15:28:28.829Z,17.55
2023-03-12T15:31:11.838Z,16.50
2023-03-12T15:33:40.907Z,15.95
2023-03-12T15:36:24.723Z,92.47
2023-03-12T15:38:55.550Z,27.27
2023-03-12T15:41:28.077Z,21.48
2023-03-12T15:43:58.475Z,16.27
2023-03-12T15:46:29.471Z,72.90
2023-03-12T15:49:00.486Z,25.25
2023-03-12T15:51:32.551Z,25.27
2023-03-12T15:54:05.637Z,47.63
2023-03-12T15:56:36.132Z,19.30
2023-03-12T15:59:20.111Z,19.33
2023-03-12T16:01:51.358Z,17.85
2023-03-12T16:04:19.783Z,15.15
2023-03-12T16:06:49.143Z,16.42
2023-03-12T16:09:20.989Z,15.70
2023-03-12T16:11:50.094Z,20.90
2023-03-12T16:14:24.593Z,16.20
2023-03-12T16:16:54.381Z,19.67
2023-03-12T16:19:25.274Z,20.55
2023-03-12T16:21:53.519Z,17.25
2023-03-12T16:24:21.743Z,17.38
2023-03-12T16:26:53.366Z,14.52
2023-03-12T16:29:27.327Z,13.68
2023-03-12T16:31:57.822Z,27.92
2023-03-12T16:34:26.177Z,36.65
2023-03-12T16:36:55.389Z,49.08
2023-03-12T16:39:23.918Z,47.15
2023-03-12T16:41:52.135Z,26.30
2023-03-12T16:44:22.517Z,23.85
2023-03-12T16:46:50.959Z,26.05
2023-03-12T16:49:21.002Z,27.30
2023-03-12T16:51:49.309Z,28.80
2023-03-12T16:54:17.533Z,20.75
2023-03-12T16:56:48.812Z,19.58
2023-03-12T16:59:25.339Z,16.33
2023-03-12T17:01:53.545Z,21.83
2023-03-12T17:04:23.220Z,18.13
2023-03-12T17:06:51.483Z,17.45
2023-03-12T17:09:20.682Z,17.48
2023-03-12T17:11:51.550Z,17.83
2023-03-12T17:14:22.019Z,15.35
2023-03-12T17:16:50.520Z,16.88
2023-03-12T17:19:18.912Z,17.50
2023-03-12T17:21:48.945Z,17.85
2023-03-12T17:24:17.207Z,18.83
2023-03-12T17:26:46.491Z,17.02
2023-03-12T17:29:14.695Z,16.58
2023-03-12T17:31:42.946Z,17.27
2023-03-12T17:34:11.576Z,18.83
2023-03-12T17:36:40.553Z,16.77
2023-03-12T17:39:10.152Z,16.52
2023-03-12T17:41:38.380Z,16.08
2023-03-12T17:44:07.211Z,15.82
2023-03-12T17:46:39.088Z,17.50
2023-03-12T17:49:08.876Z,13.48
2023-03-12T17:51:37.167Z,15.23
2023-03-12T17:54:05.514Z,15.43
2023-03-12T17:56:35.061Z,30.45
2023-03-12T17:59:03.333Z,59.10
2023-03-12T18:01:31.542Z,34.45
2023-03-12T18:03:59.747Z,19.45
2023-03-12T18:06:27.934Z,19.10
2023-03-12T18:08:56.125Z,19.40
2023-03-12T18:11:24.359Z,16.63
2023-03-12T18:13:53.994Z,15.88
2023-03-12T18:16:22.319Z,20.92
2023-03-12T18:18:52.488Z,17.35
2023-03-12T18:21:21.053Z,14.38
2023-03-12T18:23:49.324Z,15.90
2023-03-12T18:26:17.587Z,19.42
2023-03-12T18:28:45.861Z,16.05
2023-03-12T18:31:15.510Z,16.77
2023-03-12T18:33:43.793Z,16.77
2023-03-12T18:36:12.077Z,19.35
2023-03-12T18:38:40.256Z,20.42
2023-03-12T18:41:10.534Z,19.95
2023-03-12T18:43:38.942Z,19.70
2023-03-12T18:46:08.420Z,15.60
2023-03-12T18:48:38.102Z,26.00
2023-03-12T18:51:07.028Z,20.85
2023-03-12T18:53:38.267Z,15.93
2023-03-12T18:56:07.218Z,17.65
2023-03-12T18:58:38.169Z,23.38
2023-03-12T19:01:06.704Z,12.43
2023-03-12T19:03:37.583Z,13.75
2023-03-12T19:06:09.232Z,13.80
2023-03-12T19:08:38.306Z,13.02
2023-03-12T19:11:07.513Z,11.55
2023-03-12T19:13:35.914Z,12.88
2023-03-12T19:16:06.066Z,16.85
2023-03-12T19:18:36.349Z,12.13
2023-03-12T19:21:07.717Z,10.43
2023-03-12T19:23:37.039Z,12.52
2023-03-12T19:26:05.819Z,15.90
2023-03-12T19:28:38.668Z,13.02
2023-03-12T19:31:08.902Z,12.07
2023-03-12T19:33:37.479Z,13.98
2023-03-12T19:36:08.064Z,13.80
2023-03-12T19:38:36.360Z,10.60
2023-03-12T19:41:09.222Z,15.10
2023-03-12T19:43:38.170Z,12.20
2023-03-12T19:46:06.852Z,15.55
2023-03-12T19:48:35.196Z,15.52
2023-03-12T19:51:08.772Z,13.50
2023-03-12T19:53:37.699Z,15.35
2023-03-12T19:56:06.993Z,18.73
2023-03-12T19:58:35.207Z,34.28
2023-03-12T20:01:04.537Z,23.35
2023-03-12T20:03:33.828Z,13.93
2023-03-12T20:06:02.167Z,18.40
2023-03-12T20:08:31.761Z,17.35
2023-03-12T20:11:04.266Z,15.30
2023-03-12T20:13:32.449Z,10.75
2023-03-12T20:16:02.033Z,13.38
2023-03-12T20:18:30.514Z,15.40
2023-03-12T20:20:58.721Z,16.65
2023-03-12T20:23:26.908Z,13.98
2023-03-12T20:25:56.455Z,15.90
2023-03-12T20:28:24.614Z,16.35
2023-03-12T20:30:53.251Z,13.40
2023-03-12T20:33:21.985Z,17.55
2023-03-12T20:35:50.573Z,12.02
2023-03-12T20:38:18.810Z,15.05
2023-03-12T20:40:47.293Z,13.07
2023-03-12T20:43:16.981Z,15.13
2023-03-12T20:45:48.875Z,15.60
2023-03-12T20:48:17.966Z,12.50
2023-03-12T20:50:48.683Z,10.90
2023-03-12T20:53:18.497Z,15.25
2023-03-12T20:55:46.802Z,15.43
2023-03-12T20:58:16.604Z,14.88
2023-03-12T21:00:44.926Z,18.63
2023-03-12T21:03:14.379Z,13.32
2023-03-12T21:05:43.092Z,12.15
2023-03-12T21:08:11.334Z,15.15
2023-03-12T21:10:39.946Z,13.82
2023-03-12T21:13:08.142Z,18.35
2023-03-12T21:15:38.436Z,13.32
2023-03-12T21:18:06.748Z,12.40
2023-03-12T21:20:35.032Z,18.45
2023-03-12T21:23:04.872Z,15.40
2023-03-12T21:25:35.374Z,14.88
2023-03-12T21:28:03.992Z,17.05
2023-03-12T21:30:32.770Z,13.00
2023-03-12T21:33:02.883Z,15.50
2023-03-12T21:35:31.564Z,18.23
2023-03-12T21:37:59.846Z,11.07
2023-03-12T21:40:28.014Z,16.05
2023-03-12T21:42:56.194Z,13.43
2023-03-12T21:45:25.028Z,15.55
2023-03-12T21:47:53.980Z,10.00
2023-03-12T21:50:24.078Z,14.10
2023-03-12T21:52:52.349Z,48.85
2023-03-12T21:55:20.571Z,41.67
2023-03-12T21:57:48.919Z,29.27
2023-03-12T22:00:17.737Z,41.17
2023-03-12T22:02:47.329Z,36.50
2023-03-12T22:05:17.712Z,42.75
2023-03-12T22:07:47.286Z,54.05
2023-03-12T22:10:15.478Z,46.15
2023-03-12T22:12:43.917Z,36.25
2023-03-12T22:15:13.090Z,28.48
2023-03-12T22:17:41.889Z,20.75
2023-03-12T22:20:11.815Z,21.80
2023-03-12T22:22:39.972Z,15.82
2023-03-12T22:25:10.370Z,16.58
2023-03-12T22:27:38.532Z,19.65
2023-03-12T22:30:07.889Z,42.42
2023-03-12T22:32:36.113Z,28.40
2023-03-12T22:35:04.499Z,19.38
2023-03-12T22:37:32.677Z,63.75
2023-03-12T22:40:06.809Z,29.20
2023-03-12T22:42:36.428Z,15.38
2023-03-12T22:45:05.163Z,21.05
2023-03-12T22:47:33.515Z,43.00
2023-03-12T22:50:01.939Z,48.83
2023-03-12T22:52:30.120Z,28.55
2023-03-12T22:54:58.340Z,18.48
2023-03-12T22:57:26.648Z,26.38
2023-03-12T22:59:56.196Z,22.52
2023-03-12T23:02:24.348Z,18.73
2023-03-12T23:04:52.556Z,19.95
2023-03-12T23:07:20.831Z,18.60
2023-03-12T23:09:49.310Z,16.75
2023-03-12T23:12:17.522Z,15.82
2023-03-12T23:14:45.707Z,16.83
2023-03-12T23:17:15.398Z,17.70
2023-03-12T23:19:43.801Z,18.15
2023-03-12T23:22:12.324Z,14.88
2023-03-12T23:24:40.831Z,14.68
2023-03-12T23:27:09.247Z,15.00
2023-03-12T23:29:37.521Z,13.85
2023-03-12T23:32:06.396Z,17.48
2023-03-12T23:34:36.585Z,13.23
2023-03-12T23:37:05.164Z,14.45
2023-03-12T23:39:42.148Z,15.77
2023-03-12T23:42:16.600Z,14.57
2023-03-12T23:44:44.793Z,13.95
2023-03-12T23:47:12.993Z,10.65
2023-03-12T23:49:42.571Z,16.17
2023-03-12T23:52:10.748Z,18.05
2023-03-12T23:54:38.911Z,17.70
2023-03-12T23:57:07.178Z,14.27
2023-03-12T23:59:35.631Z,12.38
